createdAt,value
2023-01-05T00:00:32.899Z,14.80
2023-01-05T00:01:52.614Z,14.20
2023-01-05T00:02:54.447Z,13.53
2023-01-05T00:03:56.793Z,12.92
2023-01-05T00:04:58.728Z,12.52
2023-01-05T00:06:06.871Z,12.56
2023-01-05T00:07:08.698Z,12.90
2023-01-05T00:08:10.694Z,13.25
2023-01-05T00:09:16.997Z,13.56
2023-01-05T00:10:37.642Z,13.81
2023-01-05T00:11:58.233Z,14.06
2023-01-05T00:13:18.716Z,14.26
2023-01-05T00:14:42.503Z,14.42
2023-01-05T00:16:03.166Z,14.57
2023-01-05T00:17:25.096Z,14.72
2023-01-05T00:18:45.487Z,14.85
2023-01-05T00:20:06.424Z,14.95
2023-01-05T00:21:33.244Z,15.02
2023-01-05T00:22:44.434Z,14.82
2023-01-05T00:23:46.283Z,14.21
2023-01-05T00:24:48.393Z,13.57
2023-01-05T00:25:50.438Z,12.94
2023-01-05T00:26:52.393Z,12.60
2023-01-05T00:27:56.534Z,12.69
2023-01-05T00:28:58.551Z,13.01
2023-01-05T00:30:01.366Z,13.37
2023-01-05T00:31:03.675Z,13.68
2023-01-05T00:32:05.790Z,13.96
2023-01-05T00:33:09.238Z,14.17
2023-01-05T00:34:11.192Z,14.34
2023-01-05T00:35:15.257Z,14.49
2023-01-05T00:36:17.205Z,14.61
2023-01-05T00:37:19.189Z,14.69
2023-01-05T00:38:21.039Z,14.75
2023-01-05T00:39:22.945Z,14.84
2023-01-05T00:40:24.886Z,14.92
2023-01-05T00:41:26.763Z,15.01
2023-01-05T00:42:28.586Z,15.09
2023-01-05T00:43:30.885Z,15.15
2023-01-05T00:44:32.751Z,15.21
2023-01-05T00:45:34.763Z,15.26
2023-01-05T00:46:36.616Z,15.31
2023-01-05T00:47:38.590Z,15.17
2023-01-05T00:48:40.631Z,14.72
2023-01-05T00:49:42.830Z,14.12
2023-01-05T00:50:46.650Z,13.50
2023-01-05T00:51:48.617Z,13.04
2023-01-05T00:52:50.905Z,13.04
2023-01-05T00:53:52.792Z,13.31
2023-01-05T00:54:54.865Z,13.66
2023-01-05T00:56:00.461Z,13.98
2023-01-05T00:57:02.986Z,14.28
2023-01-05T00:58:04.950Z,14.50
2023-01-05T00:59:06.798Z,14.66
2023-01-05T01:00:13.541Z,14.80
2023-01-05T01:01:15.679Z,14.93
2023-01-05T01:02:17.955Z,15.02
2023-01-05T01:03:21.055Z,15.10
2023-01-05T01:04:23.513Z,15.17
2023-01-05T01:05:25.435Z,15.25
2023-01-05T01:06:28.539Z,15.31
2023-01-05T01:07:30.496Z,15.37
2023-01-05T01:08:32.662Z,15.43
2023-01-05T01:09:35.389Z,15.48
2023-01-05T01:10:40.476Z,15.45
2023-01-05T01:11:42.676Z,15.07
2023-01-05T01:12:44.428Z,14.48
2023-01-05T01:13:46.288Z,13.88
2023-01-05T01:14:49.409Z,13.36
2023-01-05T01:15:51.639Z,13.21
2023-01-05T01:16:53.685Z,13.42
2023-01-05T01:17:55.568Z,13.73
2023-01-05T01:18:59.654Z,14.07
2023-01-05T01:20:05.501Z,14.41
2023-01-05T01:21:08.321Z,14.66
2023-01-05T01:24:31.818Z,15.08
2023-01-05T01:25:33.748Z,14.71
2023-01-05T01:26:35.576Z,14.16
2023-01-05T01:27:37.449Z,13.57
2023-01-05T01:28:39.885Z,13.21
2023-01-05T01:29:41.828Z,13.27
2023-01-05T01:30:43.718Z,13.55
2023-01-05T01:31:49.045Z,13.86
2023-01-05T01:32:51.237Z,14.19
2023-01-05T01:33:53.121Z,14.43
2023-01-05T01:34:55.321Z,14.64
2023-01-05T01:35:58.058Z,14.83
2023-01-05T01:38:07.328Z,15.08
2023-01-05T01:39:09.905Z,15.16
2023-01-05T01:40:13.945Z,15.23
2023-01-05T01:41:15.746Z,15.27
2023-01-05T01:42:17.896Z,15.31
2023-01-05T01:43:43.521Z,15.34
2023-01-05T01:44:58.321Z,15.36
2023-01-05T01:46:04.894Z,15.37
2023-01-05T01:47:07.963Z,15.39
2023-01-05T01:48:14.090Z,15.39
2023-01-05T01:49:16.093Z,15.39
2023-01-05T01:50:26.770Z,15.38
2023-01-05T01:51:33.459Z,15.38
2023-01-05T01:52:37.031Z,15.39
2023-01-05T01:53:43.404Z,15.40
2023-01-05T01:54:46.082Z,15.41
2023-01-05T01:55:48.196Z,15.41
2023-01-05T01:56:55.868Z,15.39
2023-01-05T01:58:01.546Z,15.38
2023-01-05T01:59:03.639Z,15.37
2023-01-05T02:00:09.536Z,15.37
2023-01-05T02:01:20.654Z,15.37
2023-01-05T02:02:23.785Z,15.37
2023-01-05T02:03:28.621Z,15.37
2023-01-05T02:04:33.689Z,15.39
2023-01-05T02:05:38.086Z,15.42
2023-01-05T02:06:40.164Z,15.48
2023-01-05T02:07:47.454Z,15.52
2023-01-05T02:08:50.107Z,15.57
2023-01-05T02:09:52.595Z,15.59
2023-01-05T02:11:21.801Z,15.61
2023-01-05T02:12:32.341Z,15.63
2023-01-05T02:13:48.773Z,15.64
2023-01-05T02:15:19.330Z,15.64
2023-01-05T02:16:47.531Z,15.65
2023-01-05T02:18:21.149Z,15.67
2023-01-05T02:20:00.890Z,15.68
2023-01-05T02:21:14.898Z,15.68
2023-01-05T02:22:50.790Z,15.64
2023-01-05T02:24:30.598Z,15.61
2023-01-05T02:26:21.911Z,15.55
2023-01-05T02:27:42.427Z,15.51
2023-01-05T02:29:10.679Z,15.49
2023-01-05T02:30:40.545Z,15.49
2023-01-05T02:32:29.865Z,15.49
2023-01-05T02:34:03.212Z,15.47
2023-01-05T02:35:23.307Z,15.41
2023-01-05T02:36:58.990Z,15.38
2023-01-05T02:38:14.507Z,15.37
2023-01-05T02:39:29.633Z,15.35
2023-01-05T02:40:42.296Z,15.33
2023-01-05T02:41:59.765Z,15.31
2023-01-05T02:43:05.136Z,15.33
2023-01-05T02:44:10.929Z,15.35
2023-01-05T02:45:16.440Z,15.37
2023-01-05T02:46:19.288Z,15.37
2023-01-05T02:47:30.340Z,15.36
2023-01-05T02:48:40.037Z,15.34
2023-01-05T02:49:41.955Z,15.32
2023-01-05T02:51:05.799Z,15.31
2023-01-05T02:52:12.054Z,15.25
2023-01-05T02:53:31.791Z,15.23
2023-01-05T02:54:55.250Z,15.24
2023-01-05T02:56:07.797Z,15.23
2023-01-05T02:57:19.665Z,15.19
2023-01-05T02:58:33.044Z,15.18
2023-01-05T02:59:44.826Z,15.17
2023-01-05T03:00:55.501Z,15.17
2023-01-05T03:02:17.116Z,15.17
2023-01-05T03:03:34.603Z,15.18
2023-01-05T03:04:47.209Z,15.19
2023-01-05T03:06:27.322Z,15.19
2023-01-05T03:07:37.766Z,15.19
2023-01-05T03:08:49.892Z,15.18
2023-01-05T03:09:53.168Z,15.18
2023-01-05T03:11:34.229Z,15.18
2023-01-05T03:12:56.488Z,15.17
2023-01-05T03:14:22.747Z,15.15
2023-01-05T03:15:32.605Z,15.16
2023-01-05T03:16:37.983Z,15.11
2023-01-05T03:18:05.863Z,15.11
2023-01-05T03:19:32.196Z,15.12
2023-01-05T03:20:37.780Z,15.15
2023-01-05T03:22:00.335Z,15.13
2023-01-05T03:23:29.618Z,15.12
2023-01-05T03:24:50.369Z,15.11
2023-01-05T03:26:14.295Z,15.10
2023-01-05T03:27:36.539Z,15.08
2023-01-05T03:29:03.299Z,15.06
2023-01-05T03:30:29.052Z,15.05
2023-01-05T03:31:57.872Z,15.07
2023-01-05T03:33:38.854Z,15.11
2023-01-05T03:35:10.789Z,15.15
2023-01-05T03:36:19.239Z,15.16
2023-01-05T03:37:46.537Z,15.17
2023-01-05T03:38:53.133Z,15.17
2023-01-05T03:39:55.053Z,15.16
2023-01-05T03:41:02.989Z,15.16
2023-01-05T03:42:05.768Z,15.14
2023-01-05T03:43:08.276Z,15.12
2023-01-05T03:44:11.012Z,15.12
2023-01-05T03:45:17.376Z,15.12
2023-01-05T03:46:22.791Z,15.12
2023-01-05T03:47:24.929Z,15.11
2023-01-05T03:48:29.407Z,15.10
2023-01-05T03:49:32.064Z,15.08
2023-01-05T03:50:36.462Z,15.08
2023-01-05T03:51:41.920Z,15.08
2023-01-05T03:52:44.404Z,15.08
2023-01-05T03:53:46.538Z,15.08
2023-01-05T03:54:48.433Z,15.09
2023-01-05T03:55:50.629Z,15.11
2023-01-05T03:56:53.112Z,15.13
2023-01-05T03:57:56.123Z,15.12
2023-01-05T03:58:58.611Z,15.13
2023-01-05T04:00:00.934Z,15.13
2023-01-05T04:01:03.916Z,15.14
2023-01-05T04:02:07.392Z,15.15
2023-01-05T04:03:10.655Z,15.15
2023-01-05T04:04:13.112Z,15.15
2023-01-05T04:05:15.159Z,15.16
2023-01-05T04:06:17.544Z,15.17
2023-01-05T04:07:20.042Z,15.18
2023-01-05T04:08:22.764Z,15.19
2023-01-05T04:09:25.210Z,15.18
2023-01-05T04:10:27.257Z,15.17
2023-01-05T04:11:29.423Z,15.17
2023-01-05T04:12:34.663Z,15.16
2023-01-05T04:13:37.065Z,15.13
2023-01-05T04:14:39.260Z,15.11
2023-01-05T04:15:41.629Z,15.10
2023-01-05T04:16:44.172Z,15.10
2023-01-05T04:17:55.202Z,15.08
2023-01-05T04:18:57.307Z,15.06
2023-01-05T04:19:59.266Z,15.05
2023-01-05T04:21:01.445Z,15.02
2023-01-05T04:22:03.587Z,14.99
2023-01-05T04:23:06.046Z,14.98
2023-01-05T04:24:11.031Z,14.99
2023-01-05T04:25:13.947Z,15.00
2023-01-05T04:26:17.794Z,15.00
2023-01-05T04:27:23.306Z,15.04
2023-01-05T04:28:26.743Z,15.07
2023-01-05T04:29:30.277Z,15.09
2023-01-05T04:30:32.854Z,15.11
2023-01-05T04:31:35.064Z,15.13
2023-01-05T04:32:37.484Z,15.16
2023-01-05T04:33:40.187Z,15.19
2023-01-05T04:34:42.667Z,15.21
2023-01-05T04:35:44.718Z,15.21
2023-01-05T04:36:48.153Z,15.23
2023-01-05T04:37:50.856Z,15.25
2023-01-05T04:38:52.806Z,15.27
2023-01-05T04:39:55.315Z,15.28
2023-01-05T04:40:57.455Z,15.28
2023-01-05T04:42:00.341Z,15.13
2023-01-05T04:43:03.396Z,14.62
2023-01-05T04:44:05.791Z,13.96
2023-01-05T04:45:08.381Z,13.32
2023-01-05T04:46:11.320Z,12.97
2023-01-05T04:47:13.280Z,13.05
2023-01-05T04:48:17.329Z,13.34
2023-01-05T04:49:19.818Z,13.64
2023-01-05T04:50:24.222Z,13.92
2023-01-05T04:51:26.425Z,14.17
2023-01-05T04:52:28.461Z,14.35
2023-01-05T04:53:30.642Z,14.51
2023-01-05T04:54:32.966Z,14.64
2023-01-05T04:55:35.090Z,14.72
2023-01-05T04:56:38.449Z,14.81
2023-01-05T04:57:41.331Z,14.89
2023-01-05T04:58:43.978Z,14.95
2023-01-05T04:59:46.044Z,14.99
2023-01-05T05:00:50.926Z,15.03
2023-01-05T05:01:53.204Z,15.07
2023-01-05T05:02:55.623Z,15.10
2023-01-05T05:03:58.336Z,15.11
2023-01-05T05:05:00.903Z,15.13
2023-01-05T05:06:02.802Z,15.15
2023-01-05T05:07:05.130Z,15.17
2023-01-05T05:08:07.447Z,15.21
2023-01-05T05:09:10.083Z,15.26
2023-01-05T05:10:13.063Z,15.28
2023-01-05T05:11:16.562Z,15.30
2023-01-05T05:12:20.914Z,15.32
2023-01-05T05:13:25.296Z,15.34
2023-01-05T05:14:27.964Z,15.35
2023-01-05T05:15:32.834Z,15.37
2023-01-05T05:16:36.193Z,15.39
2023-01-05T05:17:38.647Z,15.42
2023-01-05T05:18:40.461Z,15.42
2023-01-05T05:19:45.530Z,15.45
2023-01-05T05:20:51.397Z,15.45
2023-01-05T05:21:53.486Z,15.48
2023-01-05T05:22:55.709Z,15.45
2023-01-05T05:23:58.055Z,15.10
2023-01-05T05:24:59.872Z,14.52
2023-01-05T05:26:01.999Z,13.87
2023-01-05T05:27:04.787Z,13.30
2023-01-05T05:28:06.880Z,13.11
2023-01-05T05:29:08.798Z,13.29
2023-01-05T05:30:11.512Z,13.61
2023-01-05T05:31:13.376Z,13.93
2023-01-05T05:32:15.550Z,14.21
2023-01-05T05:33:17.553Z,14.44
2023-01-05T05:34:20.228Z,14.62
2023-01-05T05:35:22.161Z,14.75
2023-01-05T05:36:24.017Z,14.86
2023-01-05T05:37:25.895Z,14.96
2023-01-05T05:38:28.005Z,15.05
2023-01-05T05:39:30.203Z,15.13
2023-01-05T05:40:32.188Z,15.20
2023-01-05T05:41:34.445Z,15.24
2023-01-05T05:42:36.449Z,15.28
2023-01-05T05:43:38.540Z,15.32
2023-01-05T05:44:40.300Z,15.35
2023-01-05T05:45:49.540Z,15.38
2023-01-05T05:46:52.007Z,15.40
2023-01-05T05:47:54.136Z,15.42
2023-01-05T05:48:58.651Z,15.44
2023-01-05T05:50:00.655Z,15.46
2023-01-05T05:51:02.577Z,15.46
2023-01-05T05:52:04.657Z,15.28
2023-01-05T05:53:07.025Z,14.79
2023-01-05T05:54:09.005Z,14.12
2023-01-05T05:55:10.823Z,13.48
2023-01-05T05:56:12.744Z,13.06
2023-01-05T05:57:15.063Z,13.09
2023-01-05T05:58:20.375Z,13.38
2023-01-05T05:59:22.382Z,13.73
2023-01-05T06:00:24.240Z,14.03
2023-01-05T06:01:26.257Z,14.28
2023-01-05T06:02:28.534Z,14.47
2023-01-05T06:03:30.666Z,14.64
2023-01-05T06:04:32.545Z,14.78
2023-01-05T06:05:34.531Z,14.89
2023-01-05T06:06:36.373Z,14.97
2023-01-05T06:07:38.292Z,15.04
2023-01-05T06:08:40.570Z,15.11
2023-01-05T06:09:42.492Z,15.17
2023-01-05T06:10:44.508Z,15.23
2023-01-05T06:11:46.727Z,15.26
2023-01-05T06:12:48.624Z,15.30
2023-01-05T06:13:50.478Z,15.32
2023-01-05T06:14:52.242Z,15.35
2023-01-05T06:15:54.730Z,15.39
2023-01-05T06:16:56.730Z,15.43
2023-01-05T06:17:58.678Z,15.44
2023-01-05T06:19:01.486Z,15.42
2023-01-05T06:20:04.420Z,15.43
2023-01-05T06:21:07.498Z,15.25
2023-01-05T06:22:09.230Z,14.74
2023-01-05T06:23:11.154Z,14.08
2023-01-05T06:24:13.065Z,13.42
2023-01-05T06:25:15.034Z,12.96
2023-01-05T06:26:16.805Z,12.96
2023-01-05T06:27:18.983Z,13.23
2023-01-05T06:28:20.956Z,13.56
2023-01-05T06:29:22.756Z,13.83
2023-01-05T06:30:25.045Z,14.06
2023-01-05T06:31:27.192Z,14.25
2023-01-05T06:32:29.193Z,14.41
2023-01-05T06:33:30.974Z,14.56
2023-01-05T06:34:32.843Z,14.69
2023-01-05T06:35:34.679Z,14.80
2023-01-05T06:36:36.559Z,14.89
2023-01-05T06:37:38.340Z,14.95
2023-01-05T06:38:40.163Z,14.98
2023-01-05T06:39:42.556Z,15.02
2023-01-05T06:40:46.658Z,15.06
2023-01-05T06:41:48.471Z,15.09
2023-01-05T06:42:50.244Z,15.12
2023-01-05T06:43:52.095Z,15.17
2023-01-05T06:44:54.344Z,15.21
2023-01-05T06:45:56.422Z,15.26
2023-01-05T06:46:58.330Z,15.29
2023-01-05T06:48:01.155Z,15.21
2023-01-05T06:49:03.001Z,14.78
2023-01-05T06:50:05.697Z,14.18
2023-01-05T06:51:07.561Z,13.52
2023-01-05T06:52:15.800Z,13.00
2023-01-05T06:53:18.362Z,12.91
2023-01-05T06:54:20.534Z,13.16
2023-01-05T06:55:22.478Z,13.50
2023-01-05T06:56:24.250Z,13.81
2023-01-05T06:57:26.017Z,14.11
2023-01-05T06:58:27.814Z,14.34
2023-01-05T06:59:29.568Z,14.55
2023-01-05T07:00:32.665Z,14.73
2023-01-05T07:01:34.633Z,14.85
2023-01-05T07:02:36.697Z,14.95
2023-01-05T07:03:38.658Z,15.04
2023-01-05T07:04:40.609Z,15.09
2023-01-05T07:05:42.542Z,15.14
2023-01-05T07:06:44.852Z,15.19
2023-01-05T07:07:46.597Z,15.22
2023-01-05T07:08:48.593Z,15.26
2023-01-05T07:09:50.440Z,15.31
2023-01-05T07:10:52.370Z,15.35
2023-01-05T07:11:54.124Z,15.36
2023-01-05T07:12:56.497Z,15.37
2023-01-05T07:13:58.270Z,15.17
2023-01-05T07:14:59.995Z,14.66
2023-01-05T07:16:02.320Z,14.01
2023-01-05T07:17:04.436Z,13.37
2023-01-05T07:18:06.211Z,12.97
2023-01-05T07:19:08.113Z,13.00
2023-01-05T07:20:10.109Z,13.28
2023-01-05T07:21:11.992Z,13.60
2023-01-05T07:22:13.772Z,13.89
2023-01-05T07:23:15.475Z,14.14
2023-01-05T07:24:17.269Z,14.37
2023-01-05T07:25:19.228Z,14.56
2023-01-05T07:26:21.136Z,14.70
2023-01-05T07:27:22.968Z,14.81
2023-01-05T07:28:24.728Z,14.92
2023-01-05T07:29:27.250Z,15.02
2023-01-05T07:30:29.002Z,15.12
2023-01-05T07:31:30.874Z,15.16
2023-01-05T07:32:32.859Z,15.19
2023-01-05T07:33:39.880Z,15.25
2023-01-05T07:34:47.586Z,15.30
2023-01-05T07:35:53.156Z,15.35
2023-01-05T07:36:54.949Z,15.38
2023-01-05T07:37:57.405Z,15.40
2023-01-05T07:38:59.706Z,15.18
2023-01-05T07:40:01.599Z,14.65
2023-01-05T07:41:03.760Z,14.00
2023-01-05T07:42:05.854Z,13.37
2023-01-05T07:43:08.164Z,12.99
2023-01-05T07:44:10.003Z,13.07
2023-01-05T07:45:11.757Z,13.38
2023-01-05T07:46:13.628Z,13.73
2023-01-05T07:47:15.507Z,14.06
2023-01-05T07:48:23.233Z,14.33
2023-01-05T07:49:25.584Z,14.56
2023-01-05T07:50:27.439Z,14.73
2023-01-05T07:51:30.163Z,14.88
2023-01-05T07:52:33.183Z,14.98
2023-01-05T07:53:43.875Z,15.05
2023-01-05T07:54:46.517Z,15.14
2023-01-05T07:56:01.980Z,15.22
2023-01-05T07:57:04.060Z,15.32
2023-01-05T07:58:05.871Z,15.34
2023-01-05T07:59:07.838Z,15.11
2023-01-05T08:00:10.997Z,14.56
2023-01-05T08:01:18.507Z,13.88
2023-01-05T08:02:20.854Z,13.24
2023-01-05T08:03:23.239Z,12.83
2023-01-05T08:04:25.154Z,12.87
2023-01-05T08:05:30.509Z,13.18
2023-01-05T08:06:34.116Z,13.55
2023-01-05T08:07:36.613Z,13.93
2023-01-05T08:08:38.617Z,14.23
2023-01-05T08:09:59.544Z,14.47
2023-01-05T08:11:09.412Z,14.70
2023-01-05T08:12:11.206Z,14.88
2023-01-05T08:13:31.670Z,15.00
2023-01-05T08:14:33.464Z,15.13
2023-01-05T08:15:35.356Z,15.08
2023-01-05T08:16:37.200Z,14.70
2023-01-05T08:17:41.159Z,14.09
2023-01-05T08:18:42.952Z,13.44
2023-01-05T08:19:44.739Z,12.89
2023-01-05T08:20:55.514Z,12.53
2023-01-05T08:21:57.632Z,12.66
2023-01-05T08:22:59.488Z,13.03
2023-01-05T08:24:01.719Z,13.42
2023-01-05T08:25:04.340Z,13.78
2023-01-05T08:26:12.236Z,14.10
2023-01-05T08:27:14.166Z,14.36
2023-01-05T08:28:16.465Z,14.58
2023-01-05T08:29:18.813Z,14.77
2023-01-05T08:30:21.061Z,14.91
2023-01-05T08:31:26.236Z,14.81
2023-01-05T08:32:28.145Z,14.33
2023-01-05T08:33:30.068Z,13.76
2023-01-05T08:34:34.884Z,13.20
2023-01-05T08:35:44.634Z,12.67
2023-01-05T08:36:46.837Z,12.39
2023-01-05T08:37:48.546Z,12.60
2023-01-05T08:38:55.108Z,12.99
2023-01-05T08:39:57.575Z,13.44
2023-01-05T08:41:00.658Z,13.81
2023-01-05T08:42:03.083Z,14.11
2023-01-05T08:43:06.613Z,14.37
2023-01-05T08:44:13.387Z,14.59
2023-01-05T08:45:16.147Z,14.64
2023-01-05T08:46:19.200Z,14.33
2023-01-05T08:47:26.514Z,13.80
2023-01-05T08:48:29.966Z,13.21
2023-01-05T08:49:31.727Z,12.71
2023-01-05T08:50:33.705Z,12.32
2023-01-05T08:51:36.421Z,12.34
2023-01-05T08:52:38.617Z,12.68
2023-01-05T08:53:40.574Z,13.14
2023-01-05T08:54:43.905Z,13.54
2023-01-05T08:55:45.759Z,13.89
2023-01-05T08:56:50.780Z,14.20
2023-01-05T08:57:53.086Z,14.46
2023-01-05T08:58:59.465Z,14.68
2023-01-05T09:00:01.557Z,14.78
2023-01-05T09:01:11.906Z,14.50
2023-01-05T09:02:13.948Z,13.91
2023-01-05T09:03:16.062Z,13.36
2023-01-05T09:04:18.423Z,12.84
2023-01-05T09:05:20.543Z,12.42
2023-01-05T09:06:22.923Z,12.38
2023-01-05T09:07:24.756Z,12.71
2023-01-05T09:08:26.903Z,13.18
2023-01-05T09:09:28.721Z,13.60
2023-01-05T09:10:30.550Z,13.96
2023-01-05T09:11:33.458Z,14.29
2023-01-05T09:12:36.583Z,14.55
2023-01-05T09:13:39.955Z,14.77
2023-01-05T09:14:41.797Z,14.80
2023-01-05T09:15:43.608Z,14.44
2023-01-05T09:18:07.764Z,13.18
2023-01-05T09:19:10.091Z,12.69
2023-01-05T09:20:12.033Z,12.44
2023-01-05T09:21:14.197Z,12.63
2023-01-05T09:22:15.897Z,13.04
2023-01-05T09:23:17.850Z,13.48
2023-01-05T09:24:20.225Z,13.90
2023-01-05T09:25:22.154Z,14.28
2023-01-05T09:26:24.043Z,14.59
2023-01-05T09:27:25.765Z,14.83
2023-01-05T09:28:27.635Z,15.04
2023-01-05T09:29:29.432Z,15.10
2023-01-05T09:30:36.023Z,14.78
2023-01-05T09:31:43.902Z,14.17
2023-01-05T09:32:45.745Z,13.62
2023-01-05T09:33:48.941Z,13.10
2023-01-05T09:34:50.680Z,12.67
2023-01-05T09:35:56.471Z,12.60
2023-01-05T09:36:58.378Z,12.92
2023-01-05T09:38:00.542Z,13.37
2023-01-05T09:39:04.623Z,13.80
2023-01-05T09:40:07.444Z,14.19
2023-01-05T09:41:34.185Z,14.49
2023-01-05T09:42:44.428Z,14.83
2023-01-05T09:43:52.419Z,14.97
2023-01-05T09:45:08.698Z,14.70
2023-01-05T09:46:25.009Z,14.08
2023-01-05T09:47:36.236Z,13.42
2023-01-05T09:48:46.637Z,12.87
2023-01-05T09:49:50.653Z,12.49
2023-01-05T09:50:53.800Z,12.60
2023-01-05T09:52:01.794Z,13.01
2023-01-05T09:53:05.961Z,13.52
2023-01-05T09:54:17.472Z,13.92
2023-01-05T09:55:23.421Z,14.34
2023-01-05T09:58:02.984Z,14.85
2023-01-05T09:59:18.898Z,14.59
2023-01-05T10:00:24.159Z,13.99
2023-01-05T10:01:26.211Z,13.46
2023-01-05T10:02:37.471Z,12.99
2023-01-05T10:04:05.121Z,12.56
2023-01-05T10:05:10.570Z,12.75
2023-01-05T10:06:15.157Z,13.22
2023-01-05T10:07:29.867Z,13.70
2023-01-05T10:08:41.215Z,14.22
2023-01-05T10:09:46.291Z,14.61
2023-01-05T10:11:16.609Z,14.89
2023-01-05T10:12:45.333Z,15.01
2023-01-05T10:14:03.280Z,14.44
2023-01-05T10:15:20.823Z,13.79
2023-01-05T10:16:29.090Z,13.19
2023-01-05T10:17:44.213Z,12.74
2023-01-05T10:18:47.566Z,12.70
2023-01-05T10:19:50.654Z,13.05
2023-01-05T10:21:12.476Z,13.50
2023-01-05T10:22:35.160Z,14.07
2023-01-05T10:24:02.348Z,14.55
2023-01-05T10:25:46.410Z,14.87
2023-01-05T10:27:28.685Z,14.53
2023-01-05T10:28:40.159Z,13.73
2023-01-05T10:29:46.382Z,13.20
2023-01-05T10:30:59.585Z,12.74
2023-01-05T10:32:17.039Z,12.31
2023-01-05T10:33:39.108Z,12.38
2023-01-05T10:35:02.673Z,12.96
2023-01-05T10:36:41.345Z,13.62
2023-01-05T10:38:13.452Z,14.27
2023-01-05T10:40:20.953Z,14.72
2023-01-05T10:42:06.320Z,14.57
2023-01-05T10:43:24.078Z,13.70
2023-01-05T10:44:28.847Z,13.07
2023-01-05T10:45:32.362Z,12.61
2023-01-05T10:46:47.191Z,12.28
2023-01-05T10:47:52.660Z,12.46
2023-01-05T10:48:54.957Z,12.90
2023-01-05T10:49:59.305Z,13.39
2023-01-05T10:51:02.658Z,13.84
2023-01-05T10:52:09.562Z,14.25
2023-01-05T10:53:15.266Z,14.59
2023-01-05T10:54:33.125Z,14.71
2023-01-05T10:55:45.534Z,14.34
2023-01-05T10:56:47.385Z,13.77
2023-01-05T10:57:49.049Z,13.28
2023-01-05T10:59:15.452Z,12.83
2023-01-05T11:00:21.446Z,12.31
2023-01-05T11:01:27.910Z,12.27
2023-01-05T11:02:35.555Z,12.67
2023-01-05T11:05:25.470Z,13.87
2023-01-05T11:06:31.447Z,14.35
2023-01-05T11:07:50.981Z,14.58
2023-01-05T11:08:53.506Z,14.31
2023-01-05T11:09:55.609Z,13.84
2023-01-05T11:10:58.734Z,13.34
2023-01-05T11:12:03.392Z,12.89
2023-01-05T11:13:31.005Z,12.48
2023-01-05T11:14:42.528Z,12.07
2023-01-05T11:15:54.117Z,12.25
2023-01-05T11:17:06.342Z,12.84
2023-01-05T11:18:30.919Z,13.49
2023-01-05T11:19:40.658Z,14.13
2023-01-05T11:21:13.892Z,14.57
2023-01-05T11:22:37.242Z,14.69
2023-01-05T11:23:42.415Z,14.21
2023-01-05T11:24:45.571Z,13.73
2023-01-05T11:25:47.352Z,13.32
2023-01-05T11:26:55.335Z,12.96
2023-01-05T11:28:16.541Z,12.60
2023-01-05T11:29:19.457Z,12.40
2023-01-05T11:30:24.631Z,12.69
2023-01-05T11:31:42.986Z,13.19
2023-01-05T11:32:47.030Z,13.80
2023-01-05T11:33:58.414Z,14.21
2023-01-05T11:35:01.321Z,14.51
2023-01-05T11:36:07.004Z,14.39
2023-01-05T11:37:24.318Z,13.90
2023-01-05T11:38:29.332Z,13.29
2023-01-05T11:39:39.071Z,12.78
2023-01-05T11:40:43.912Z,12.28
2023-01-05T11:41:45.727Z,11.88
2023-01-05T11:44:44.024Z,11.28
2023-01-05T11:45:52.232Z,11.69
2023-01-05T11:46:54.533Z,12.28
2023-01-05T11:48:02.056Z,12.79
2023-01-05T11:49:04.026Z,13.25
2023-01-05T11:50:15.441Z,13.59
2023-01-05T11:51:40.671Z,13.66
2023-01-05T11:52:50.709Z,13.14
2023-01-05T11:53:52.466Z,12.58
2023-01-05T11:54:54.321Z,12.11
2023-01-05T11:56:18.299Z,11.68
2023-01-05T11:57:25.928Z,11.17
2023-01-05T11:58:33.530Z,10.97
2023-01-05T11:59:37.958Z,11.28
2023-01-05T12:01:18.336Z,11.83
2023-01-05T12:03:04.639Z,12.66
2023-01-05T12:04:22.433Z,13.36
2023-01-05T12:05:36.600Z,13.58
2023-01-05T12:07:09.142Z,13.27
2023-01-05T12:08:23.887Z,12.56
2023-01-05T12:09:35.336Z,11.99
2023-01-05T12:10:59.295Z,11.51
2023-01-05T12:12:34.832Z,11.11
2023-01-05T12:13:47.107Z,11.32
2023-01-05T12:14:55.138Z,11.97
2023-01-05T12:16:15.062Z,12.63
2023-01-05T12:17:28.755Z,13.26
2023-01-05T12:18:52.227Z,13.71
2023-01-05T12:20:32.724Z,13.66
2023-01-05T12:21:45.657Z,12.97
2023-01-05T12:23:06.088Z,12.44
2023-01-05T12:24:29.796Z,11.93
2023-01-05T12:25:49.944Z,11.48
2023-01-05T12:27:36.530Z,11.15
2023-01-05T12:33:35.420Z,12.65
2023-01-05T12:34:01.313Z,13.41
2023-01-05T12:34:45.380Z,13.89
2023-01-05T12:35:59.729Z,13.42
2023-01-05T12:37:36.321Z,12.88
2023-01-05T12:39:03.694Z,12.24
2023-01-05T12:40:16.281Z,11.83
2023-01-05T12:41:39.305Z,11.56
2023-01-05T12:42:59.072Z,11.69
2023-01-05T12:44:20.072Z,12.34
2023-01-05T12:45:50.134Z,13.10
2023-01-05T12:47:00.977Z,13.77
2023-01-05T12:48:12.167Z,14.03
2023-01-05T12:49:32.783Z,13.73
2023-01-05T12:51:04.928Z,13.16
2023-01-05T12:52:22.625Z,12.45
2023-01-05T12:53:36.480Z,11.93
2023-01-05T12:54:47.559Z,11.51
2023-01-05T12:55:57.495Z,11.14
2023-01-05T12:57:13.189Z,10.86
2023-01-05T12:58:32.428Z,11.06
2023-01-05T13:00:04.636Z,11.71
2023-01-05T13:01:20.929Z,12.53
2023-01-05T13:02:36.850Z,13.09
2023-01-05T13:03:51.396Z,13.42
2023-01-05T13:05:00.072Z,13.17
2023-01-05T13:06:14.960Z,12.68
2023-01-05T13:07:27.484Z,12.10
2023-01-05T13:08:45.044Z,11.59
2023-01-05T13:10:02.083Z,11.12
2023-01-05T13:11:31.170Z,10.72
2023-01-05T13:12:37.371Z,10.50
2023-01-05T13:14:15.886Z,10.86
2023-01-05T13:15:29.488Z,11.78
2023-01-05T13:16:58.782Z,12.39
2023-01-05T13:18:06.073Z,12.99
2023-01-05T13:19:35.986Z,12.93
2023-01-05T13:20:50.939Z,12.33
2023-01-05T13:21:55.331Z,11.75
2023-01-05T13:23:06.655Z,11.31
2023-01-05T13:24:28.576Z,10.87
2023-01-05T13:25:40.519Z,10.44
2023-01-05T13:26:42.353Z,10.14
2023-01-05T13:27:44.249Z,10.24
2023-01-05T13:28:48.879Z,10.70
2023-01-05T13:29:59.380Z,11.31
2023-01-05T13:31:36.240Z,11.93
2023-01-05T13:32:59.492Z,12.59
2023-01-05T13:34:30.194Z,12.79
2023-01-05T13:35:43.548Z,12.31
2023-01-05T13:37:03.912Z,11.75
2023-01-05T13:38:20.065Z,11.16
2023-01-05T13:39:32.827Z,10.66
2023-01-05T13:41:00.982Z,10.29
2023-01-05T13:42:33.264Z,10.45
2023-01-05T13:43:46.858Z,11.21
2023-01-05T13:45:24.085Z,11.81
2023-01-05T13:46:47.737Z,12.48
2023-01-05T13:48:13.318Z,12.89
2023-01-05T13:49:54.434Z,12.72
2023-01-05T13:51:15.461Z,11.96
2023-01-05T13:52:51.746Z,11.32
2023-01-05T13:53:58.730Z,10.67
2023-01-05T13:55:05.004Z,10.42
2023-01-05T13:56:19.873Z,10.67
2023-01-05T13:57:26.107Z,11.26
2023-01-05T13:58:41.941Z,11.81
2023-01-05T13:59:55.132Z,12.34
2023-01-05T14:00:59.537Z,12.74
2023-01-05T14:02:03.460Z,12.96
2023-01-05T14:03:24.019Z,12.79
2023-01-05T14:04:34.053Z,12.20
2023-01-05T14:05:54.369Z,11.61
2023-01-05T14:07:02.705Z,10.98
2023-01-05T14:08:19.236Z,10.53
2023-01-05T14:09:43.442Z,10.47
2023-01-05T14:11:08.906Z,10.99
2023-01-05T14:12:16.913Z,11.65
2023-01-05T14:13:43.630Z,12.11
2023-01-05T14:15:12.326Z,12.58
2023-01-05T14:16:33.324Z,12.91
2023-01-05T14:17:55.666Z,12.73
2023-01-05T14:19:29.062Z,12.07
2023-01-05T14:20:49.439Z,11.27
2023-01-05T14:21:53.956Z,10.65
2023-01-05T14:22:56.654Z,10.33
2023-01-05T14:23:59.064Z,10.45
2023-01-05T14:25:38.453Z,10.87
2023-01-05T14:27:19.258Z,11.64
2023-01-05T14:28:30.774Z,12.28
2023-01-05T14:29:45.386Z,12.65
2023-01-05T14:30:49.949Z,12.89
2023-01-05T14:31:52.002Z,12.70
2023-01-05T14:32:55.409Z,12.22
2023-01-05T14:33:57.076Z,11.64
2023-01-05T14:35:19.784Z,11.11
2023-01-05T14:36:31.618Z,10.49
2023-01-05T14:37:41.597Z,10.19
2023-01-05T14:38:48.394Z,10.43
2023-01-05T14:39:53.327Z,10.94
2023-01-05T14:40:57.019Z,11.48
2023-01-05T14:42:07.059Z,11.92
2023-01-05T14:43:25.741Z,12.34
2023-01-05T14:44:46.969Z,12.72
2023-01-05T14:46:14.826Z,12.70
2023-01-05T14:47:34.277Z,12.06
2023-01-05T14:48:43.295Z,11.40
2023-01-05T14:50:03.709Z,10.88
2023-01-05T14:51:31.049Z,10.35
2023-01-05T14:52:53.330Z,10.31
2023-01-05T14:54:00.123Z,10.89
2023-01-05T14:55:07.108Z,11.45
2023-01-05T14:56:34.086Z,12.03
2023-01-05T14:57:47.260Z,12.46
2023-01-05T14:59:11.332Z,12.79
2023-01-05T15:00:28.172Z,12.63